createdAt,value
2022-08-11T00:00:05.537Z,948.61
2022-08-11T00:05:03.320Z,948.73
2022-08-11T00:10:04.299Z,948.75
2022-08-11T00:15:03.222Z,948.77
2022-08-11T00:20:11.201Z,948.84
2022-08-11T00:25:03.215Z,948.92
2022-08-11T00:30:04.879Z,948.90
2022-08-11T00:35:50.106Z,948.86
2022-08-11T00:40:04.414Z,948.79
2022-08-11T00:45:03.523Z,948.65
2022-08-11T00:50:04.250Z,948.79
2022-08-11T00:55:03.190Z,948.86
2022-08-11T01:00:04.733Z,948.94
2022-08-11T01:05:03.277Z,948.96
2022-08-11T01:10:07.266Z,948.92
2022-08-11T01:15:03.419Z,948.96
2022-08-11T01:20:39.775Z,949.12
2022-08-11T01:25:03.174Z,949.10
2022-08-11T01:30:04.986Z,949.16
2022-08-11T01:35:03.247Z,949.20
2022-08-11T01:40:04.445Z,949.30
2022-08-11T01:45:03.395Z,949.28
2022-08-11T01:50:09.099Z,949.30
2022-08-11T01:55:03.197Z,949.31
2022-08-11T02:00:05.689Z,949.33
2022-08-11T02:05:03.289Z,949.37
2022-08-11T02:10:05.459Z,949.39
2022-08-11T02:15:05.509Z,949.39
2022-08-11T02:20:04.235Z,949.39
2022-08-11T02:25:03.219Z,949.41
2022-08-11T02:30:05.250Z,949.41
2022-08-11T02:35:03.225Z,949.37
2022-08-11T02:40:04.343Z,949.35
2022-08-11T02:45:03.052Z,949.33
2022-08-11T02:50:07.107Z,949.30
2022-08-11T02:55:03.129Z,949.30
2022-08-11T03:00:04.672Z,949.28
2022-08-11T03:05:03.201Z,949.24
2022-08-11T03:10:04.329Z,949.20
2022-08-11T03:15:03.263Z,949.08
2022-08-11T03:20:04.275Z,949.08
2022-08-11T03:25:03.115Z,949.06
2022-08-11T03:30:05.413Z,949.06
2022-08-11T03:35:03.195Z,949.04
2022-08-11T03:40:04.228Z,949.02
2022-08-11T03:45:03.410Z,948.94
2022-08-11T03:50:04.244Z,948.90
2022-08-11T03:55:03.205Z,948.82
2022-08-11T04:00:04.750Z,948.75
2022-08-11T04:05:03.198Z,948.77
2022-08-11T04:10:04.749Z,948.63
2022-08-11T04:15:03.267Z,948.65
2022-08-11T04:20:06.753Z,948.73
2022-08-11T04:25:04.253Z,948.65
2022-08-11T04:30:05.303Z,948.51
2022-08-11T04:35:03.305Z,948.41
2022-08-11T04:40:04.064Z,948.28
2022-08-11T04:45:03.311Z,948.24
2022-08-11T04:50:04.171Z,948.18
2022-08-11T04:55:03.368Z,948.08
2022-08-11T05:00:06.025Z,948.06
2022-08-11T05:05:03.205Z,948.10
2022-08-11T05:10:04.114Z,948.12
2022-08-11T05:15:03.326Z,948.08
2022-08-11T05:20:04.189Z,948.04
2022-08-11T05:25:03.140Z,947.98
2022-08-11T05:30:05.247Z,947.98
2022-08-11T05:35:03.142Z,947.98
2022-08-11T05:40:04.169Z,947.84
2022-08-11T05:45:03.221Z,947.82
2022-08-11T05:50:04.150Z,947.77
2022-08-11T05:55:06.498Z,947.69
2022-08-11T06:00:05.228Z,947.67
2022-08-11T06:05:03.218Z,947.75
2022-08-11T06:10:04.294Z,947.80
2022-08-11T06:15:03.281Z,947.77
2022-08-11T06:20:07.042Z,947.79
2022-08-11T06:25:03.055Z,947.71
2022-08-11T06:30:05.128Z,947.71
2022-08-11T06:35:03.187Z,947.65
2022-08-11T06:40:04.265Z,947.57
2022-08-11T06:45:03.452Z,947.47
2022-08-11T06:50:04.148Z,947.45
2022-08-11T06:55:03.272Z,947.37
2022-08-11T07:00:04.553Z,947.31
2022-08-11T07:05:03.359Z,947.28
2022-08-11T07:10:05.779Z,947.26
2022-08-11T07:15:03.254Z,947.29
2022-08-11T07:20:04.103Z,947.39
2022-08-11T07:25:03.621Z,947.35
2022-08-11T07:30:04.761Z,947.26
2022-08-11T07:35:03.181Z,947.10
2022-08-11T07:40:04.260Z,946.98
2022-08-11T07:45:03.281Z,946.94
2022-08-11T07:50:04.105Z,947.06
2022-08-11T07:55:03.352Z,947.10
2022-08-11T08:00:05.128Z,947.08
2022-08-11T08:05:03.380Z,947.10
2022-08-11T08:10:04.214Z,947.12
2022-08-11T08:15:03.226Z,947.16
2022-08-11T08:20:04.284Z,947.10
2022-08-11T08:25:03.242Z,947.04
2022-08-11T08:30:04.443Z,947.02
2022-08-11T08:35:03.065Z,947.04
2022-08-11T08:40:04.461Z,947.04
2022-08-11T08:45:03.239Z,947.08
2022-08-11T08:50:04.131Z,947.08
2022-08-11T08:55:03.338Z,947.12
2022-08-11T09:00:12.697Z,947.16
2022-08-11T09:05:03.376Z,947.22
2022-08-11T09:10:04.234Z,947.26
2022-08-11T09:15:03.208Z,947.29
2022-08-11T09:20:04.271Z,947.28
2022-08-11T09:25:03.363Z,947.35
2022-08-11T09:30:05.304Z,947.37
2022-08-11T09:35:03.346Z,947.39
2022-08-11T09:40:04.260Z,947.47
2022-08-11T09:45:03.203Z,947.57
2022-08-11T09:50:04.296Z,947.55
2022-08-11T09:55:03.218Z,947.57
2022-08-11T10:00:09.658Z,947.67
2022-08-11T10:05:03.347Z,947.63
2022-08-11T10:10:04.211Z,947.69
2022-08-11T10:15:03.178Z,947.80
2022-08-11T10:20:05.845Z,947.86
2022-08-11T10:25:03.314Z,947.94
2022-08-11T10:30:04.570Z,948.02
2022-08-11T10:35:03.299Z,948.04
2022-08-11T10:40:04.199Z,948.12
2022-08-11T10:45:03.145Z,948.22
2022-08-11T10:50:05.211Z,948.28
2022-08-11T10:55:03.216Z,948.39
2022-08-11T11:00:05.746Z,948.41
2022-08-11T11:05:03.313Z,948.47
2022-08-11T11:10:04.300Z,948.53
2022-08-11T11:15:03.159Z,948.57
2022-08-11T11:20:04.303Z,948.65
2022-08-11T11:25:03.241Z,948.63
2022-08-11T11:30:04.340Z,948.65
2022-08-11T11:35:03.309Z,948.63
2022-08-11T11:40:05.129Z,948.75
2022-08-11T11:45:03.160Z,948.79
2022-08-11T11:50:04.222Z,948.90
2022-08-11T11:55:03.229Z,948.98
2022-08-11T12:00:05.123Z,949.02
2022-08-11T12:05:03.364Z,949.08
2022-08-11T12:10:04.195Z,949.16
2022-08-11T12:15:03.149Z,949.24
2022-08-11T12:20:04.296Z,949.28
2022-08-11T12:25:03.202Z,949.31
2022-08-11T12:30:04.531Z,949.31
2022-08-11T12:35:03.236Z,949.31
2022-08-11T12:40:13.181Z,949.39
2022-08-11T12:45:03.250Z,949.41
2022-08-11T12:50:04.239Z,949.43
2022-08-11T12:55:03.212Z,949.45
2022-08-11T13:00:04.717Z,949.43
2022-08-11T13:05:04.342Z,949.47
2022-08-11T13:10:04.214Z,949.49
2022-08-11T13:15:03.117Z,949.55
2022-08-11T13:20:09.288Z,949.51
2022-08-11T13:25:03.231Z,949.49
2022-08-11T13:30:06.177Z,949.53
2022-08-11T13:35:03.240Z,949.55
2022-08-11T13:40:04.119Z,949.49
2022-08-11T13:45:03.362Z,949.47
2022-08-11T13:50:04.238Z,949.45
2022-08-11T13:55:03.164Z,949.43
2022-08-11T14:00:05.554Z,949.43
2022-08-11T14:05:03.246Z,949.43
2022-08-11T14:10:04.527Z,949.43
2022-08-11T14:15:08.025Z,949.39
2022-08-11T14:20:14.116Z,949.37
2022-08-11T14:25:03.365Z,949.33
2022-08-11T14:30:05.527Z,949.33
2022-08-11T14:35:03.220Z,949.33
2022-08-11T14:40:04.490Z,949.37
2022-08-11T14:45:03.125Z,949.35
2022-08-11T14:50:10.578Z,949.33
2022-08-11T14:55:03.296Z,949.26
2022-08-11T15:00:05.072Z,949.20
2022-08-11T15:05:03.231Z,949.16
2022-08-11T15:10:13.599Z,949.12
2022-08-11T15:15:03.328Z,949.04
2022-08-11T15:20:05.317Z,949.00
2022-08-11T15:25:03.183Z,948.98
2022-08-11T15:30:05.116Z,948.96
2022-08-11T15:35:03.906Z,948.92
2022-08-11T15:40:04.391Z,948.94
2022-08-11T15:45:04.218Z,948.92
2022-08-11T15:50:10.350Z,948.94
2022-08-11T15:55:03.204Z,948.92
2022-08-11T16:00:06.502Z,948.92
2022-08-11T16:05:03.290Z,948.84
2022-08-11T16:10:04.315Z,948.77
2022-08-11T16:15:04.329Z,948.63
2022-08-11T16:20:04.247Z,948.51
2022-08-11T16:25:58.804Z,948.37
2022-08-11T16:30:05.434Z,948.31
2022-08-11T16:35:03.155Z,948.28
2022-08-11T16:40:04.117Z,948.22
2022-08-11T16:45:03.364Z,948.12
2022-08-11T16:50:04.165Z,948.00
2022-08-11T16:55:03.168Z,947.96
2022-08-11T17:00:11.670Z,947.92
2022-08-11T17:05:03.191Z,947.86
2022-08-11T17:10:04.323Z,947.84
2022-08-11T17:15:03.341Z,947.79
2022-08-11T17:20:41.086Z,947.73
2022-08-11T17:25:03.290Z,947.69
2022-08-11T17:30:04.930Z,947.61
2022-08-11T17:35:03.272Z,947.49
2022-08-11T17:40:04.373Z,947.49
2022-08-11T17:45:03.195Z,947.43
2022-08-11T17:50:09.118Z,947.39
2022-08-11T17:55:06.006Z,947.39
2022-08-11T18:00:05.281Z,947.37
2022-08-11T18:05:03.237Z,947.35
2022-08-11T18:10:04.316Z,947.39
2022-08-11T18:15:04.407Z,947.35
2022-08-11T18:20:04.452Z,947.28
2022-08-11T18:25:03.150Z,947.24
2022-08-11T18:30:04.878Z,947.18
2022-08-11T18:35:03.213Z,947.20
2022-08-11T18:40:04.375Z,947.18
2022-08-11T18:45:03.311Z,947.12
2022-08-11T18:50:05.313Z,947.24
2022-08-11T18:55:03.433Z,947.24
2022-08-11T19:00:06.066Z,947.26
2022-08-11T19:05:03.314Z,947.26
2022-08-11T19:10:04.405Z,947.20
2022-08-11T19:15:03.298Z,947.20
2022-08-11T19:20:04.347Z,947.08
2022-08-11T19:25:03.222Z,947.12
2022-08-11T19:30:12.821Z,947.10
2022-08-11T19:35:03.380Z,947.06
2022-08-11T19:40:04.398Z,946.96
2022-08-11T19:45:03.314Z,947.00
2022-08-11T19:50:04.439Z,947.00
2022-08-11T19:55:03.581Z,947.10
2022-08-11T20:00:05.488Z,947.12
2022-08-11T20:05:03.268Z,947.14
2022-08-11T20:10:05.597Z,947.12
2022-08-11T20:15:03.304Z,947.02
2022-08-11T20:20:04.528Z,947.06
2022-08-11T20:25:03.394Z,947.04
2022-08-11T20:30:05.057Z,947.14
2022-08-11T20:35:03.446Z,947.20
2022-08-11T20:40:04.337Z,947.22
2022-08-11T20:45:03.286Z,947.24
2022-08-11T20:50:04.435Z,947.24
2022-08-11T20:55:03.405Z,947.29
2022-08-11T21:00:04.670Z,947.33
2022-08-11T21:05:03.305Z,947.37
2022-08-11T21:10:11.414Z,947.35
2022-08-11T21:15:04.724Z,947.35
2022-08-11T21:20:07.004Z,947.39
2022-08-11T21:25:03.349Z,947.41
2022-08-11T21:30:04.658Z,947.39
2022-08-11T21:35:03.180Z,947.45
2022-08-11T21:40:04.330Z,947.47
2022-08-11T21:45:03.299Z,947.53
2022-08-11T21:50:04.448Z,947.59
2022-08-11T21:55:03.379Z,947.69
2022-08-11T22:00:07.021Z,947.63
2022-08-11T22:05:03.472Z,947.61
2022-08-11T22:10:27.661Z,947.69
2022-08-11T22:15:03.306Z,947.67
2022-08-11T22:20:04.383Z,947.61
2022-08-11T22:25:08.340Z,947.63
2022-08-11T22:30:06.184Z,947.75
2022-08-11T22:35:03.224Z,947.79
2022-08-11T22:40:04.363Z,947.82
2022-08-11T22:45:03.369Z,947.80
2022-08-11T22:50:04.389Z,947.84
2022-08-11T22:55:03.341Z,947.86
2022-08-11T23:00:06.183Z,947.90
2022-08-11T23:05:03.644Z,947.98
2022-08-11T23:10:04.350Z,948.04
2022-08-11T23:15:03.283Z,948.06
2022-08-11T23:20:09.788Z,948.08
2022-08-11T23:25:03.342Z,948.08
2022-08-11T23:30:04.487Z,948.06
2022-08-11T23:35:37.964Z,948.06
2022-08-11T23:40:05.064Z,948.10
2022-08-11T23:45:03.245Z,948.28
2022-08-11T23:50:04.422Z,948.35
2022-08-11T23:55:03.346Z,948.35
